Time;durP1;ratioP1;P1;durP2;ratioP2;P2;SDS_P1;SDS_P2;PMS_P1;PMS_P2;Temp;Humidity;BMP_temperature;BMP_pressure;BME280_temperature;BME280_humidity;BME280_pressure;Samples;Min_cycle;Max_cycle;Signal;HPM_P1;HPM_P2
2023/05/31 00:02:13;;;;;;;15.98;3.60;;;12.10;99.90;;;;;;5109713;27;20043;-81
2023/05/31 00:04:39;;;;;;;10.65;3.58;;;12.00;99.90;;;;;;5097843;27;20031;-81
2023/05/31 00:07:06;;;;;;;11.05;3.38;;;11.90;99.90;;;;;;5116037;27;20035;-80
2023/05/31 00:09:32;;;;;;;13.15;3.13;;;11.90;99.90;;;;;;5108673;27;20331;-81
2023/05/31 00:11:57;;;;;;;10.05;3.53;;;11.90;99.90;;;;;;5110021;27;20472;-81
2023/05/31 00:14:23;;;;;;;9.77;3.45;;;11.80;99.90;;;;;;5116702;27;20064;-81
2023/05/31 00:16:49;;;;;;;7.95;3.53;;;11.80;99.90;;;;;;5111183;27;20030;-81
2023/05/31 00:19:14;;;;;;;17.55;3.55;;;11.80;99.90;;;;;;5109933;27;21435;-81
2023/05/31 00:21:40;;;;;;;12.02;3.63;;;11.80;99.90;;;;;;5114239;27;20403;-81
2023/05/31 00:24:06;;;;;;;10.70;3.15;;;11.90;99.90;;;;;;5108587;27;20233;-81
2023/05/31 00:26:32;;;;;;;10.60;3.50;;;11.90;99.90;;;;;;5106916;27;20611;-81
2023/05/31 00:28:57;;;;;;;16.55;3.95;;;11.80;99.90;;;;;;5108525;27;20053;-81
2023/05/31 00:31:23;;;;;;;8.88;3.65;;;11.80;99.90;;;;;;5112577;27;20024;-80
2023/05/31 00:33:48;;;;;;;11.63;4.15;;;11.80;99.90;;;;;;5113476;27;20030;-81
2023/05/31 00:36:14;;;;;;;8.50;3.53;;;11.80;99.90;;;;;;5109269;27;20046;-80
2023/05/31 00:38:40;;;;;;;21.92;4.32;;;11.70;99.90;;;;;;5107253;27;20027;-81
2023/05/31 00:41:08;;;;;;;13.63;3.45;;;11.70;99.90;;;;;;5111105;27;20028;-80
2023/05/31 00:43:34;;;;;;;13.20;4.07;;;11.60;99.90;;;;;;5113243;27;20023;-81
2023/05/31 00:46:00;;;;;;;15.55;3.72;;;11.60;99.90;;;;;;5108110;27;20085;-81
2023/05/31 00:48:25;;;;;;;9.75;3.67;;;11.60;99.90;;;;;;5109120;27;20399;-80
2023/05/31 00:50:51;;;;;;;8.52;3.17;;;11.60;99.90;;;;;;5109208;27;20023;-81
2023/05/31 00:53:18;;;;;;;16.85;4.20;;;11.60;99.90;;;;;;5115059;27;20101;-80
2023/05/31 00:55:44;;;;;;;12.50;4.32;;;11.60;99.90;;;;;;5108740;27;20553;-80
2023/05/31 00:58:10;;;;;;;11.35;4.32;;;11.60;99.90;;;;;;5106084;27;20031;-80
2023/05/31 01:00:36;;;;;;;13.18;4.40;;;11.60;99.90;;;;;;5112245;27;20020;-80
2023/05/31 01:03:02;;;;;;;11.52;3.88;;;11.50;99.90;;;;;;5105161;27;20020;-81
2023/05/31 01:05:29;;;;;;;12.55;3.97;;;11.50;99.90;;;;;;5102364;27;20048;-81
2023/05/31 01:07:54;;;;;;;13.82;4.30;;;11.50;99.90;;;;;;5111592;27;20039;-80
2023/05/31 01:10:20;;;;;;;9.88;4.05;;;11.50;99.90;;;;;;5107561;27;20103;-81
2023/05/31 01:13:07;;;;;;;11.00;3.40;;;11.40;99.90;;;;;;5111105;27;20027;-80
2023/05/31 01:15:38;;;;;;;17.02;3.85;;;11.30;99.90;;;;;;5100150;27;20038;-81
2023/05/31 01:18:10;;;;;;;12.52;4.00;;;11.30;99.90;;;;;;5110722;27;20066;-80
2023/05/31 01:20:39;;;;;;;14.43;3.42;;;11.20;99.90;;;;;;5111825;27;20036;-81
2023/05/31 01:23:32;;;;;;;13.52;3.55;;;11.20;99.90;;;;;;5107259;27;20036;-80
2023/05/31 01:26:25;;;;;;;13.43;3.72;;;11.20;99.90;;;;;;5108997;27;20247;-80
2023/05/31 01:28:55;;;;;;;14.52;3.63;;;11.20;99.90;;;;;;5111342;27;20047;-80
2023/05/31 01:31:21;;;;;;;15.35;3.40;;;11.10;99.90;;;;;;5103834;27;20024;-81
2023/05/31 01:33:49;;;;;;;9.25;3.55;;;11.10;99.90;;;;;;5099833;28;20489;-81
2023/05/31 01:36:15;;;;;;;10.52;3.13;;;11.00;99.90;;;;;;5107242;27;20049;-80
2023/05/31 01:38:40;;;;;;;10.27;3.63;;;11.10;99.90;;;;;;5117617;27;20023;-80
2023/05/31 01:41:07;;;;;;;10.10;3.42;;;11.00;99.90;;;;;;5106417;27;20101;-80
2023/05/31 01:43:35;;;;;;;6.88;3.25;;;11.00;99.90;;;;;;5104894;27;20039;-80
2023/05/31 01:46:01;;;;;;;18.05;4.15;;;11.00;99.90;;;;;;5099569;27;20043;-80
2023/05/31 01:48:28;;;;;;;9.20;3.83;;;11.00;99.90;;;;;;5110115;27;20028;-80
2023/05/31 01:50:55;;;;;;;10.55;3.50;;;11.00;99.90;;;;;;5120786;27;20410;-80
2023/05/31 01:53:21;;;;;;;14.02;3.53;;;10.90;99.90;;;;;;5107848;27;20023;-80
2023/05/31 01:55:47;;;;;;;6.85;3.55;;;10.90;99.90;;;;;;5110882;27;20034;-80
2023/05/31 01:58:14;;;;;;;8.75;3.10;;;10.80;99.90;;;;;;5113701;27;21448;-80
2023/05/31 02:00:41;;;;;;;5.00;2.80;;;10.80;99.90;;;;;;5116642;27;20019;-80
2023/05/31 02:03:08;;;;;;;15.07;3.58;;;10.80;99.90;;;;;;5113270;27;20027;-80
2023/05/31 02:05:33;;;;;;;6.47;3.08;;;10.70;99.90;;;;;;5108157;27;20034;-80
2023/05/31 02:07:59;;;;;;;8.93;2.72;;;10.70;99.90;;;;;;5106659;27;20560;-81
2023/05/31 02:10:25;;;;;;;7.57;3.72;;;10.70;99.90;;;;;;5106658;28;20027;-81
2023/05/31 02:12:53;;;;;;;13.10;3.67;;;10.60;99.90;;;;;;5114139;27;20031;-81
2023/05/31 02:15:19;;;;;;;10.85;4.15;;;10.60;99.90;;;;;;5115382;27;20023;-80
2023/05/31 02:17:46;;;;;;;9.35;3.60;;;10.60;99.90;;;;;;5109882;27;20106;-80
2023/05/31 02:20:14;;;;;;;8.02;3.50;;;10.50;99.90;;;;;;5114155;27;20039;-81
2023/05/31 02:22:41;;;;;;;10.73;3.35;;;10.50;99.90;;;;;;5105837;27;20028;-80
2023/05/31 02:25:08;;;;;;;9.05;3.65;;;10.50;99.90;;;;;;5102383;27;20044;-80
2023/05/31 02:27:35;;;;;;;18.23;4.32;;;10.50;99.90;;;;;;5104679;28;20140;-81
2023/05/31 02:30:01;;;;;;;10.65;4.43;;;10.40;99.90;;;;;;5084423;28;20556;-80
2023/05/31 02:32:26;;;;;;;12.70;3.63;;;10.40;99.90;;;;;;5109439;28;20382;-81
2023/05/31 02:34:52;;;;;;;10.77;3.58;;;10.30;99.90;;;;;;5105771;28;21279;-81
2023/05/31 02:37:17;;;;;;;10.45;3.65;;;10.30;99.90;;;;;;5121601;28;20248;-80
2023/05/31 02:39:43;;;;;;;14.73;4.13;;;10.30;99.90;;;;;;5115087;28;20133;-80
2023/05/31 02:42:08;;;;;;;13.95;3.58;;;10.30;99.90;;;;;;5111867;28;20467;-81
2023/05/31 02:44:34;;;;;;;7.40;3.38;;;10.30;99.90;;;;;;5111357;28;20028;-80
2023/05/31 02:47:00;;;;;;;8.55;2.92;;;10.30;99.90;;;;;;5098647;28;20504;-80
2023/05/31 02:49:25;;;;;;;8.60;3.28;;;10.30;99.90;;;;;;5109622;28;20027;-81
2023/05/31 02:51:51;;;;;;;8.38;3.67;;;10.30;99.90;;;;;;5117169;28;20556;-81
2023/05/31 02:54:18;;;;;;;9.15;3.53;;;10.30;99.90;;;;;;5105629;28;20031;-80
2023/05/31 02:56:43;;;;;;;8.65;3.33;;;10.30;99.90;;;;;;5109632;28;20551;-80
2023/05/31 02:59:09;;;;;;;6.05;3.15;;;10.20;99.90;;;;;;5104532;28;20043;-80
2023/05/31 03:01:34;;;;;;;12.20;3.80;;;10.20;99.90;;;;;;5105367;28;20529;-81
2023/05/31 03:04:00;;;;;;;12.75;4.72;;;10.20;99.90;;;;;;5109101;28;20526;-80
2023/05/31 03:06:25;;;;;;;11.52;3.72;;;10.20;99.90;;;;;;5105681;28;20039;-80
2023/05/31 03:08:52;;;;;;;11.65;3.65;;;10.10;99.90;;;;;;5111350;28;20023;-80
2023/05/31 03:11:18;;;;;;;10.43;3.83;;;10.10;99.90;;;;;;5106245;28;20024;-80
2023/05/31 03:13:43;;;;;;;13.35;3.60;;;10.20;99.90;;;;;;5103437;28;20020;-81
2023/05/31 03:16:09;;;;;;;10.40;3.67;;;10.20;99.90;;;;;;5093443;28;20071;-81
2023/05/31 03:18:34;;;;;;;8.10;3.20;;;10.10;99.90;;;;;;5118496;28;20095;-80
2023/05/31 03:21:00;;;;;;;9.77;3.92;;;10.10;99.90;;;;;;5107596;28;20019;-80
2023/05/31 03:23:29;;;;;;;6.93;3.30;;;10.00;99.90;;;;;;5107365;28;20472;-80
2023/05/31 03:25:55;;;;;;;4.68;3.22;;;10.00;99.90;;;;;;5101068;28;20059;-80
2023/05/31 03:28:21;;;;;;;6.45;3.50;;;10.00;99.90;;;;;;5109346;28;20027;-80
2023/05/31 03:30:46;;;;;;;15.88;3.90;;;10.00;99.90;;;;;;5109577;27;20040;-80
2023/05/31 03:33:15;;;;;;;10.32;3.53;;;9.90;99.90;;;;;;5114854;27;20420;-80
2023/05/31 03:35:40;;;;;;;6.30;3.15;;;9.90;99.90;;;;;;5107705;28;20031;-80
2023/05/31 03:38:06;;;;;;;15.07;4.00;;;9.90;99.90;;;;;;5116770;27;20528;-80
2023/05/31 03:40:31;;;;;;;8.55;3.55;;;9.90;99.90;;;;;;5113090;27;20019;-80
2023/05/31 03:42:57;;;;;;;10.70;4.07;;;9.80;99.90;;;;;;5121523;27;20461;-80
2023/05/31 03:45:22;;;;;;;16.25;4.22;;;9.90;99.90;;;;;;5109956;27;20027;-80
2023/05/31 03:47:48;;;;;;;15.85;4.70;;;9.90;99.90;;;;;;5106486;27;20047;-80
2023/05/31 03:50:14;;;;;;;9.98;4.60;;;9.90;99.90;;;;;;5114588;27;20035;-80
2023/05/31 03:52:39;;;;;;;15.63;3.90;;;9.90;99.90;;;;;;5110262;27;20038;-80
2023/05/31 03:55:05;;;;;;;5.95;3.55;;;9.90;99.90;;;;;;5107216;27;20027;-80
2023/05/31 03:57:31;;;;;;;11.32;4.50;;;9.90;99.90;;;;;;5113254;27;20028;-80
2023/05/31 04:00:17;;;;;;;12.07;4.07;;;9.90;99.90;;;;;;5113601;27;20080;-80
2023/05/31 04:02:42;;;;;;;;;;;10.00;99.90;;;;;;5113823;27;20098;-80
2023/05/31 04:05:08;;;;;;;14.00;4.82;;;10.00;99.90;;;;;;5118808;27;20006;-81
2023/05/31 04:07:34;;;;;;;7.93;3.90;;;10.00;99.90;;;;;;5104943;27;20067;-81
2023/05/31 04:09:59;;;;;;;6.68;4.00;;;10.00;99.90;;;;;;5102344;27;20040;-81
2023/05/31 04:12:25;;;;;;;10.38;3.58;;;10.10;99.90;;;;;;5104277;27;20024;-81
2023/05/31 04:14:51;;;;;;;11.50;4.35;;;10.10;99.90;;;;;;5111188;27;20024;-81
2023/05/31 04:17:16;;;;;;;7.90;4.13;;;10.20;99.90;;;;;;5111482;27;20115;-81
2023/05/31 04:19:42;;;;;;;15.38;4.32;;;10.20;99.90;;;;;;5113301;27;20404;-82
2023/05/31 04:22:08;;;;;;;7.65;3.88;;;10.30;99.90;;;;;;5107177;27;20031;-82
2023/05/31 04:24:33;;;;;;;9.05;4.18;;;10.30;99.90;;;;;;5114753;27;20051;-81
2023/05/31 04:26:58;;;;;;;11.55;3.88;;;10.40;99.90;;;;;;5111900;27;20046;-81
2023/05/31 04:29:25;;;;;;;10.85;4.20;;;10.40;99.90;;;;;;5103917;27;20350;-81
2023/05/31 04:31:52;;;;;;;8.77;3.08;;;10.50;99.90;;;;;;5109283;27;20304;-81
2023/05/31 04:34:18;;;;;;;7.88;3.15;;;10.50;99.90;;;;;;5117483;27;20053;-82
2023/05/31 04:36:48;;;;;;;9.88;4.20;;;10.60;99.90;;;;;;5114900;27;20024;-81
2023/05/31 04:39:19;;;;;;;9.07;3.97;;;10.70;99.90;;;;;;5105361;27;20079;-81
2023/05/31 04:41:45;;;;;;;8.85;3.55;;;10.70;99.90;;;;;;5097608;27;20020;-82
2023/05/31 04:44:11;;;;;;;7.93;3.95;;;10.80;99.90;;;;;;5108110;27;20035;-81
2023/05/31 04:46:37;;;;;;;5.35;3.20;;;10.80;99.90;;;;;;5088513;27;20066;-81
2023/05/31 04:49:03;;;;;;;10.23;4.30;;;11.00;99.90;;;;;;5103046;27;20028;-81
2023/05/31 04:51:28;;;;;;;12.43;4.22;;;11.10;99.90;;;;;;5107481;27;20500;-80
2023/05/31 04:53:54;;;;;;;12.13;4.93;;;11.10;99.90;;;;;;5103661;27;20561;-81
2023/05/31 04:56:21;;;;;;;18.23;6.20;;;11.30;99.90;;;;;;5108350;27;20028;-81
2023/05/31 04:58:47;;;;;;;19.17;5.90;;;11.40;99.90;;;;;;5104433;28;20396;-81
2023/05/31 05:01:15;;;;;;;16.73;4.63;;;11.60;99.90;;;;;;5110439;27;20032;-81
2023/05/31 05:03:41;;;;;;;16.33;6.65;;;11.80;99.90;;;;;;5110948;27;20377;-81
2023/05/31 05:06:15;;;;;;;18.27;4.60;;;11.90;99.90;;;;;;5108620;27;20038;-81
2023/05/31 05:08:41;;;;;;;12.05;4.00;;;12.00;99.90;;;;;;5111255;27;20047;-82
2023/05/31 05:11:07;;;;;;;14.68;4.90;;;12.20;99.90;;;;;;5100789;27;20084;-82
2023/05/31 05:13:33;;;;;;;15.00;4.18;;;12.30;99.90;;;;;;5111879;27;20024;-81
2023/05/31 05:15:58;;;;;;;15.75;4.72;;;12.40;99.90;;;;;;5112763;27;20053;-81
2023/05/31 05:18:24;;;;;;;14.65;4.30;;;12.40;99.90;;;;;;5103319;27;20074;-81
2023/05/31 05:20:49;;;;;;;16.85;4.95;;;12.50;99.90;;;;;;5111271;27;20597;-81
2023/05/31 05:23:15;;;;;;;14.85;5.18;;;12.60;99.90;;;;;;5112413;27;20550;-81
2023/05/31 05:25:40;;;;;;;17.60;4.87;;;12.70;99.90;;;;;;5109146;27;20126;-81
2023/05/31 05:28:06;;;;;;;13.75;4.32;;;12.70;99.90;;;;;;5106742;27;20463;-81
2023/05/31 05:30:32;;;;;;;13.35;4.35;;;12.80;99.90;;;;;;5121062;27;20051;-82
2023/05/31 05:32:58;;;;;;;16.88;4.05;;;12.80;99.90;;;;;;5113145;27;20039;-82
2023/05/31 05:35:23;;;;;;;17.98;3.78;;;12.90;99.90;;;;;;5108787;27;20032;-81
2023/05/31 05:37:49;;;;;;;9.90;3.95;;;12.90;99.90;;;;;;5107801;27;20041;-82
2023/05/31 05:40:15;;;;;;;13.70;4.88;;;13.00;99.90;;;;;;5103992;27;20024;-81
2023/05/31 05:42:41;;;;;;;12.27;3.92;;;13.00;99.90;;;;;;5106876;27;20024;-81
2023/05/31 05:45:07;;;;;;;22.25;6.65;;;13.10;99.90;;;;;;5109448;27;20086;-81
2023/05/31 05:47:34;;;;;;;18.83;4.63;;;13.10;99.90;;;;;;5115810;27;20103;-81
2023/05/31 05:50:00;;;;;;;21.67;5.05;;;13.20;99.90;;;;;;5103916;27;20069;-81
2023/05/31 05:52:26;;;;;;;10.10;4.13;;;13.20;99.90;;;;;;5106669;28;20844;-82
2023/05/31 05:54:51;;;;;;;16.33;4.10;;;13.20;99.90;;;;;;5100331;28;20061;-81
2023/05/31 05:57:17;;;;;;;17.17;4.70;;;13.30;99.90;;;;;;5111511;27;20723;-81
2023/05/31 05:59:44;;;;;;;12.88;4.22;;;13.40;99.90;;;;;;5105536;27;20019;-81
2023/05/31 06:02:09;;;;;;;14.98;4.95;;;13.40;99.90;;;;;;5110657;27;20028;-81
2023/05/31 06:04:35;;;;;;;14.77;4.80;;;13.40;99.90;;;;;;5108017;27;20031;-81
2023/05/31 06:07:01;;;;;;;11.23;3.38;;;13.40;99.90;;;;;;5107030;27;20100;-81
2023/05/31 06:09:26;;;;;;;14.45;4.22;;;13.40;99.90;;;;;;5101403;27;20388;-81
2023/05/31 06:12:03;;;;;;;12.65;3.90;;;13.50;99.90;;;;;;5113420;27;20102;-82
2023/05/31 06:14:29;;;;;;;19.33;4.28;;;13.60;99.90;;;;;;5103570;27;20023;-82
2023/05/31 06:16:55;;;;;;;13.20;3.83;;;13.60;99.90;;;;;;5110264;27;20168;-81
2023/05/31 06:19:20;;;;;;;13.25;4.05;;;13.70;99.90;;;;;;5090906;28;20104;-81
2023/05/31 06:21:46;;;;;;;12.55;4.28;;;13.70;99.90;;;;;;5097850;27;20019;-81
2023/05/31 06:24:11;;;;;;;15.27;4.97;;;13.70;99.90;;;;;;5109215;27;20111;-81
2023/05/31 06:26:38;;;;;;;16.85;4.22;;;13.80;99.90;;;;;;5101419;28;20051;-81
2023/05/31 06:29:03;;;;;;;10.27;3.58;;;13.80;99.90;;;;;;5113061;27;20031;-81
2023/05/31 06:31:31;;;;;;;22.63;4.45;;;13.90;99.90;;;;;;5092654;28;20388;-81
2023/05/31 06:33:56;;;;;;;18.17;4.20;;;13.90;99.90;;;;;;5106095;28;20428;-81
2023/05/31 06:36:25;;;;;;;13.80;3.80;;;13.90;99.90;;;;;;5112816;28;20100;-81
2023/05/31 06:38:50;;;;;;;12.80;3.38;;;14.00;99.90;;;;;;5110368;28;20544;-81
2023/05/31 06:41:16;;;;;;;16.73;3.75;;;14.00;99.90;;;;;;5109548;28;20107;-81
2023/05/31 06:43:41;;;;;;;13.82;4.68;;;14.10;99.90;;;;;;5104043;28;20472;-81
2023/05/31 06:46:10;;;;;;;12.05;4.05;;;14.20;99.90;;;;;;5090830;28;20028;-81
2023/05/31 06:48:35;;;;;;;6.78;3.35;;;14.20;99.90;;;;;;5105867;28;20031;-81
2023/05/31 06:51:01;;;;;;;16.10;3.42;;;14.30;99.90;;;;;;5112145;28;20035;-82
2023/05/31 06:53:26;;;;;;;12.52;3.75;;;14.30;99.90;;;;;;5115682;28;20079;-82
2023/05/31 06:55:52;;;;;;;33.53;4.60;;;14.30;99.90;;;;;;5113596;28;20027;-82
2023/05/31 06:58:18;;;;;;;14.13;3.95;;;14.40;99.90;;;;;;5111753;28;20059;-81
2023/05/31 07:00:43;;;;;;;10.82;3.60;;;14.50;99.90;;;;;;5106799;28;20497;-82
2023/05/31 07:03:09;;;;;;;14.68;3.25;;;14.50;99.90;;;;;;5106836;28;20038;-81
2023/05/31 07:05:35;;;;;;;11.88;3.50;;;14.50;99.90;;;;;;5121719;27;20119;-81
2023/05/31 07:08:01;;;;;;;15.30;3.88;;;14.60;99.90;;;;;;5123277;27;20043;-81
2023/05/31 07:10:29;;;;;;;18.60;4.57;;;14.70;99.90;;;;;;5111464;27;20110;-81
2023/05/31 07:12:55;;;;;;;16.65;4.15;;;14.80;99.90;;;;;;5097681;27;20442;-82
2023/05/31 07:15:20;;;;;;;7.90;3.13;;;14.80;99.90;;;;;;5107316;27;20107;-81
2023/05/31 07:17:46;;;;;;;18.48;4.00;;;14.80;99.90;;;;;;5111067;27;20032;-81
2023/05/31 07:20:12;;;;;;;15.20;3.38;;;14.80;99.90;;;;;;5115508;27;20034;-81
2023/05/31 07:22:37;;;;;;;12.57;3.78;;;14.90;99.90;;;;;;5106905;27;20110;-81
2023/05/31 07:25:04;;;;;;;10.82;3.20;;;15.00;99.90;;;;;;5120720;27;20051;-81
2023/05/31 07:27:31;;;;;;;9.35;3.10;;;15.00;99.90;;;;;;5107218;27;20097;-82
2023/05/31 07:29:56;;;;;;;9.88;3.50;;;15.10;99.90;;;;;;5100759;27;20031;-81
2023/05/31 07:32:22;;;;;;;14.07;3.60;;;15.10;99.90;;;;;;5104258;27;20099;-81
2023/05/31 07:34:48;;;;;;;9.85;3.25;;;15.20;99.90;;;;;;5106087;27;20027;-81
2023/05/31 07:37:13;;;;;;;13.73;2.80;;;15.30;99.90;;;;;;5122099;27;20023;-81
2023/05/31 07:39:39;;;;;;;9.43;3.13;;;15.30;99.90;;;;;;5115364;27;20016;-80
2023/05/31 07:42:05;;;;;;;14.15;3.25;;;15.30;99.90;;;;;;5112127;27;20035;-81
2023/05/31 07:44:31;;;;;;;8.23;3.30;;;15.40;99.90;;;;;;5122153;27;20154;-81
2023/05/31 07:46:56;;;;;;;12.30;3.08;;;15.40;99.90;;;;;;5114761;27;20844;-81
2023/05/31 07:49:25;;;;;;;14.90;3.28;;;15.50;99.90;;;;;;5119592;27;20034;-82
2023/05/31 07:51:51;;;;;;;15.00;3.53;;;15.60;99.90;;;;;;5110394;27;20027;-81
2023/05/31 07:54:17;;;;;;;8.65;2.80;;;15.60;99.90;;;;;;5109011;27;20019;-83
2023/05/31 07:56:43;;;;;;;7.85;2.85;;;15.70;99.90;;;;;;5099524;27;20119;-81
2023/05/31 07:59:09;;;;;;;10.43;2.42;;;15.80;99.90;;;;;;5114169;27;20023;-82
2023/05/31 08:01:35;;;;;;;8.90;2.65;;;15.80;99.90;;;;;;5113901;27;20058;-82
2023/05/31 08:04:08;;;;;;;9.52;3.13;;;15.80;99.90;;;;;;5119853;27;20073;-82
2023/05/31 08:06:33;;;;;;;8.18;2.85;;;15.90;99.90;;;;;;5108700;27;20083;-81
2023/05/31 08:09:00;;;;;;;11.82;3.10;;;15.90;99.90;;;;;;5117951;27;20039;-82
2023/05/31 08:11:27;;;;;;;12.95;2.83;;;15.90;99.90;;;;;;5123999;27;20039;-82
2023/05/31 08:13:52;;;;;;;10.07;3.40;;;15.90;99.90;;;;;;5124811;27;20039;-81
2023/05/31 08:16:18;;;;;;;16.25;3.70;;;16.00;99.90;;;;;;5117081;27;20032;-81
2023/05/31 08:18:44;;;;;;;14.45;3.42;;;16.10;99.90;;;;;;5122712;27;20031;-82
2023/05/31 08:21:10;;;;;;;14.20;3.75;;;16.20;99.90;;;;;;5116480;27;20388;-82
2023/05/31 08:23:36;;;;;;;10.95;2.78;;;16.20;99.90;;;;;;5117123;27;20392;-81
2023/05/31 08:26:02;;;;;;;7.63;2.70;;;16.30;99.90;;;;;;5112552;27;20052;-82
2023/05/31 08:28:29;;;;;;;8.20;3.00;;;16.30;99.90;;;;;;5114313;27;20031;-81
2023/05/31 08:30:55;;;;;;;6.65;2.80;;;16.40;99.90;;;;;;5116309;27;20489;-82
2023/05/31 08:33:21;;;;;;;10.30;3.58;;;16.60;99.90;;;;;;5115398;27;20030;-82
2023/05/31 08:35:46;;;;;;;11.05;3.22;;;16.60;99.90;;;;;;5114572;27;20503;-82
2023/05/31 08:38:12;;;;;;;13.82;3.03;;;16.70;99.90;;;;;;5115646;27;20558;-82
2023/05/31 08:40:38;;;;;;;10.05;2.63;;;16.80;99.90;;;;;;5099126;27;20022;-81
2023/05/31 08:43:15;;;;;;;16.00;3.10;;;16.90;99.90;;;;;;5112662;27;20020;-81
2023/05/31 08:45:42;;;;;;;13.38;3.05;;;17.00;99.90;;;;;;5107684;27;20476;-83
2023/05/31 08:48:21;;;;;;;9.68;3.00;;;17.10;99.90;;;;;;5104841;27;20040;-82
2023/05/31 08:50:48;;;;;;;10.82;2.67;;;17.10;99.90;;;;;;5092577;28;20429;-81
2023/05/31 08:53:16;;;;;;;7.93;2.83;;;17.20;99.90;;;;;;5110208;27;20034;-83
2023/05/31 08:55:44;;;;;;;12.80;3.42;;;17.30;99.90;;;;;;5113279;27;20089;-82
2023/05/31 08:58:10;;;;;;;9.15;2.65;;;17.40;99.90;;;;;;5114910;27;20146;-82
2023/05/31 09:00:36;;;;;;;12.00;3.42;;;17.40;99.90;;;;;;5113154;27;20030;-82
2023/05/31 09:03:05;;;;;;;7.45;3.70;;;17.50;99.90;;;;;;5111256;27;20023;-82
2023/05/31 09:05:31;;;;;;;9.93;3.53;;;17.60;99.90;;;;;;5116645;27;20031;-82
2023/05/31 09:07:59;;;;;;;8.90;3.05;;;17.60;99.90;;;;;;5100830;28;20404;-82
2023/05/31 09:10:25;;;;;;;6.03;2.70;;;17.70;99.90;;;;;;5115106;27;20039;-82
2023/05/31 09:12:50;;;;;;;5.10;2.65;;;17.70;99.90;;;;;;5110886;27;20027;-82
2023/05/31 09:15:16;;;;;;;11.02;2.95;;;17.80;99.90;;;;;;5113339;27;20055;-82
2023/05/31 09:17:44;;;;;;;9.48;3.42;;;17.90;99.90;;;;;;5109918;27;20035;-82
2023/05/31 09:20:10;;;;;;;8.00;2.95;;;17.90;99.90;;;;;;5109762;27;20035;-84
2023/05/31 09:22:36;;;;;;;14.50;2.75;;;18.00;99.90;;;;;;5117932;27;20099;-82
2023/05/31 09:25:01;;;;;;;6.78;2.78;;;18.00;99.90;;;;;;5114391;27;20094;-82
2023/05/31 09:27:35;;;;;;;15.20;4.07;;;18.00;99.90;;;;;;5108373;27;20046;-82
2023/05/31 09:30:11;;;;;;;11.60;2.72;;;18.10;99.90;;;;;;5100516;27;20031;-82
2023/05/31 09:32:37;;;;;;;;;;;18.10;99.90;;;;;;5108019;27;20519;-82
2023/05/31 09:35:12;;;;;;;;;;;18.20;99.90;;;;;;5113206;27;19908;-82
2023/05/31 09:37:44;;;;;;;16.98;8.15;;;18.30;99.90;;;;;;5112222;27;19935;-81
2023/05/31 09:40:13;;;;;;;10.52;2.88;;;18.40;99.90;;;;;;5114105;27;20039;-83
2023/05/31 09:42:46;;;;;;;10.27;2.53;;;18.40;99.90;;;;;;5112519;27;20396;-83
2023/05/31 09:45:11;;;;;;;8.88;2.75;;;18.50;99.90;;;;;;5111452;27;20035;-83
2023/05/31 09:47:37;;;;;;;7.68;2.35;;;18.50;99.90;;;;;;5113128;27;20183;-82
2023/05/31 09:50:03;;;;;;;8.30;2.53;;;18.50;99.90;;;;;;5112488;27;20019;-82
2023/05/31 09:52:32;;;;;;;9.02;3.10;;;18.60;99.90;;;;;;5109164;27;20028;-82
2023/05/31 09:55:05;;;;;;;6.88;2.45;;;18.60;99.90;;;;;;5093640;27;20054;-82
2023/05/31 09:57:32;;;;;;;17.20;3.78;;;18.70;99.90;;;;;;5108688;27;20020;-82
2023/05/31 09:59:59;;;;;;;6.25;2.30;;;18.70;99.90;;;;;;5115209;27;20047;-82
2023/05/31 10:02:27;;;;;;;9.05;2.33;;;18.70;99.90;;;;;;5108952;27;20038;-82
2023/05/31 10:04:54;;;;;;;9.98;2.90;;;18.80;99.90;;;;;;5111151;27;20498;-82
2023/05/31 10:07:20;;;;;;;9.43;2.53;;;18.80;99.90;;;;;;5109319;27;20093;-82
2023/05/31 10:09:46;;;;;;;7.82;2.63;;;18.80;99.90;;;;;;5115920;27;20503;-82
2023/05/31 10:12:18;;;;;;;5.38;1.95;;;18.80;99.90;;;;;;5111527;27;20115;-82
2023/05/31 10:14:53;;;;;;;4.65;2.30;;;18.90;99.90;;;;;;5108428;27;20114;-82
2023/05/31 10:17:22;;;;;;;12.65;3.35;;;18.90;99.90;;;;;;5106226;27;20039;-82
2023/05/31 10:20:00;;;;;;;9.25;2.63;;;19.00;99.90;;;;;;5110476;27;20032;-82
2023/05/31 10:22:30;;;;;;;7.38;2.38;;;19.00;99.90;;;;;;5110820;27;20022;-83
2023/05/31 10:25:14;;;;;;;11.32;2.65;;;19.10;99.90;;;;;;5112223;27;20030;-82
2023/05/31 10:27:44;;;;;;;10.40;2.90;;;19.10;99.90;;;;;;5109343;28;20041;-82
2023/05/31 10:30:13;;;;;;;12.07;3.45;;;19.20;99.90;;;;;;5106475;27;20030;-82
2023/05/31 10:32:46;;;;;;;7.47;2.20;;;19.20;99.90;;;;;;5109005;27;20026;-82
2023/05/31 10:35:11;;;;;;;9.48;2.60;;;19.30;99.90;;;;;;5110733;28;20039;-82
2023/05/31 10:37:41;;;;;;;8.40;3.13;;;19.40;99.90;;;;;;5110444;28;20035;-82
2023/05/31 10:40:18;;;;;;;9.93;2.72;;;19.40;99.90;;;;;;5111570;28;20087;-82
2023/05/31 10:42:56;;;;;;;5.68;2.10;;;19.50;99.90;;;;;;5108855;28;20036;-83
2023/05/31 10:45:42;;;;;;;8.60;2.55;;;19.60;99.90;;;;;;5106810;28;20468;-81
2023/05/31 10:48:37;;;;;;;12.10;2.92;;;19.60;99.90;;;;;;5103020;28;20599;-82
2023/05/31 10:51:03;;;;;;;5.97;2.05;;;19.70;98.20;;;;;;5110854;28;20027;-81
2023/05/31 10:53:36;;;;;;;7.40;2.35;;;19.70;99.30;;;;;;5110794;28;20100;-82
2023/05/31 10:56:06;;;;;;;6.30;1.92;;;19.70;99.90;;;;;;5110764;28;20032;-82
2023/05/31 10:58:37;;;;;;;8.18;2.13;;;19.70;97.30;;;;;;5103980;28;20050;-82
2023/05/31 11:01:14;;;;;;;5.85;2.33;;;19.80;96.90;;;;;;5092276;28;20028;-82
2023/05/31 11:03:54;;;;;;;4.97;1.85;;;19.80;95.60;;;;;;5098592;28;20035;-81
2023/05/31 11:06:30;;;;;;;8.88;2.25;;;19.80;94.60;;;;;;5109044;28;20035;-82
2023/05/31 11:09:14;;;;;;;10.57;2.17;;;19.90;94.70;;;;;;5108873;28;20374;-81
2023/05/31 11:11:40;;;;;;;16.13;2.83;;;20.00;93.10;;;;;;5111386;28;20024;-82
2023/05/31 11:14:28;;;;;;;11.45;2.47;;;20.00;92.10;;;;;;5106091;28;20016;-81
2023/05/31 11:16:56;;;;;;;11.15;2.22;;;20.10;91.30;;;;;;5114612;28;20032;-82
2023/05/31 11:19:32;;;;;;;11.77;2.65;;;20.10;91.80;;;;;;5108544;28;20189;-82
2023/05/31 11:22:07;;;;;;;4.43;1.83;;;20.20;91.30;;;;;;5109335;28;20564;-82
2023/05/31 11:24:50;;;;;;;6.03;1.80;;;20.20;89.10;;;;;;5093626;28;20425;-83
2023/05/31 11:27:17;;;;;;;13.68;2.75;;;20.20;89.20;;;;;;5112700;28;20480;-82
2023/05/31 11:29:52;;;;;;;6.03;2.22;;;20.20;88.90;;;;;;5112647;28;20091;-82
2023/05/31 11:32:22;;;;;;;6.27;2.07;;;20.20;89.10;;;;;;5115685;28;20081;-82
2023/05/31 11:34:56;;;;;;;6.95;2.72;;;20.10;90.20;;;;;;5117703;28;20275;-83
2023/05/31 11:37:23;;;;;;;8.40;2.15;;;20.10;90.90;;;;;;5102903;28;20032;-81
2023/05/31 11:39:48;;;;;;;14.43;2.80;;;20.20;91.00;;;;;;5100793;28;20177;-82
2023/05/31 11:42:15;;;;;;;4.38;1.65;;;20.30;90.00;;;;;;5106932;28;20054;-82
2023/05/31 11:44:43;;;;;;;7.38;2.00;;;20.30;90.40;;;;;;5113524;28;20039;-82
2023/05/31 11:47:11;;;;;;;6.20;2.10;;;20.40;86.40;;;;;;5108582;28;20095;-82
2023/05/31 11:49:37;;;;;;;5.63;1.92;;;20.50;89.50;;;;;;5111153;27;20260;-82
2023/05/31 11:52:04;;;;;;;8.45;2.00;;;20.50;87.70;;;;;;5116246;27;20084;-81
2023/05/31 11:54:33;;;;;;;9.82;1.88;;;20.60;85.20;;;;;;5091244;28;20020;-83
2023/05/31 11:57:08;;;;;;;6.63;1.85;;;20.60;78.00;;;;;;5114153;27;20118;-82
2023/05/31 11:59:35;;;;;;;8.20;2.00;;;20.70;87.30;;;;;;5117446;27;20031;-82
2023/05/31 12:02:05;;;;;;;3.80;1.83;;;20.70;85.30;;;;;;5114262;27;20398;-82
2023/05/31 12:04:51;;;;;;;6.18;2.72;;;20.70;81.90;;;;;;5117400;27;20027;-81
2023/05/31 12:07:17;;;;;;;7.95;2.55;;;20.70;88.50;;;;;;5092067;28;20415;-82
2023/05/31 12:09:43;;;;;;;4.97;2.00;;;20.70;85.80;;;;;;5117440;27;20015;-82
2023/05/31 12:12:11;;;;;;;6.60;2.25;;;20.70;81.90;;;;;;5096125;27;20028;-82
2023/05/31 12:14:37;;;;;;;9.77;2.00;;;20.80;82.50;;;;;;5115401;27;20023;-82
2023/05/31 12:17:04;;;;;;;11.68;2.30;;;20.80;80.90;;;;;;5107973;27;20059;-82
2023/05/31 12:19:31;;;;;;;10.20;2.13;;;20.80;76.70;;;;;;5112732;27;20032;-82
2023/05/31 12:21:57;;;;;;;7.13;2.63;;;21.00;71.90;;;;;;5113990;27;20031;-83
2023/05/31 12:24:22;;;;;;;4.22;1.88;;;21.10;79.80;;;;;;5110685;27;20020;-83
2023/05/31 12:26:48;;;;;;;8.88;2.25;;;21.20;73.20;;;;;;5107779;27;20047;-82
2023/05/31 12:29:15;;;;;;;6.88;2.10;;;21.20;72.40;;;;;;5092199;27;20038;-82
2023/05/31 12:31:41;;;;;;;7.93;2.10;;;21.20;69.90;;;;;;5112174;27;20019;-83
2023/05/31 12:34:16;;;;;;;4.45;1.48;;;21.20;69.40;;;;;;5108902;27;20111;-83
2023/05/31 12:36:48;;;;;;;8.23;1.85;;;21.10;69.10;;;;;;5117060;27;20358;-82
2023/05/31 12:39:24;;;;;;;8.00;1.80;;;21.20;71.70;;;;;;5114759;27;20070;-82
2023/05/31 12:41:50;;;;;;;3.35;1.63;;;21.20;70.00;;;;;;5110603;27;20158;-82
2023/05/31 12:44:19;;;;;;;5.28;1.70;;;21.20;70.10;;;;;;5116906;27;20476;-82
2023/05/31 12:46:46;;;;;;;3.65;1.67;;;21.20;67.90;;;;;;5089883;28;20138;-82